WXM80 ListenWXM80 Stop

You find our weather info also at:

UK Metoffice

WeatherCloud

Weather Underground

Northeastern Weather Network

AWEKAS

Citizen Weather Observer Program (CWOP)

HAMweather, WeatherForYou, PWS Weather


Weather Underground History page Text

Daily Summary for October 10, 2016 Units:  English    Metric   Both
« Previous Day
Next Day »
Daily Weekly Monthly Yearly Custom
  High: Low: Average:
Temperature: 63.6 °F 49.4 °F 54.9 °F
Dew Point: 45.8 °F 36.7 °F 40.7 °F
Humidity: 75 % 42 % 60 %
Wind Speed: 13.8 mph 2.0 mph 6.6 mph
Wind Gust: 26.5 mph - -
Wind:- - SSE
Pressure: 30.35 in 30.04 in -
Precipitation: 0.00 in    
Historical Graphs
 
 
Tabular Data for October 10, 2016
Time Temperature Dew Point Pressure Wind Wind Speed Wind Gust Humidity Rainfall Rate (Hourly)
00:03 53.6 °F 44.8 °F 30.05 in NNE 9.6 mph 16.1 mph 72 % 0.00 in
00:08 53.6 °F 45.2 °F 30.05 in NNE 10.9 mph 17.3 mph 73 % 0.00 in
00:13 53.5 °F 45.1 °F 30.04 in NNE 7.2 mph 11.5 mph 73 % 0.00 in
00:18 53.5 °F 45.1 °F 30.04 in North 9.4 mph 16.1 mph 73 % 0.00 in
00:23 53.5 °F 45.8 °F 30.04 in North 8.2 mph 13.0 mph 75 % 0.00 in
00:29 53.5 °F 45.4 °F 30.04 in NNE 9.8 mph 14.0 mph 74 % 0.00 in
00:34 53.3 °F 45.2 °F 30.04 in NNE 8.6 mph 17.3 mph 74 % 0.00 in
00:39 53.2 °F 44.8 °F 30.05 in NE 10.5 mph 16.1 mph 73 % 0.00 in
00:44 53.1 °F 44.3 °F 30.05 in NE 13.8 mph 21.9 mph 72 % 0.00 in
00:49 53.0 °F 44.9 °F 30.05 in NE 10.1 mph 16.1 mph 74 % 0.00 in
00:54 53.0 °F 44.9 °F 30.04 in NNE 11.0 mph 18.4 mph 74 % 0.00 in
00:59 53.0 °F 44.9 °F 30.04 in NNE 10.0 mph 19.6 mph 74 % 0.00 in
01:04 52.9 °F 44.5 °F 30.05 in North 10.7 mph 17.3 mph 73 % 0.00 in
01:09 52.9 °F 44.5 °F 30.05 in NNE 11.5 mph 18.4 mph 73 % 0.00 in
01:14 52.8 °F 44.4 °F 30.04 in NE 11.4 mph 19.6 mph 73 % 0.00 in
01:20 52.8 °F 44.4 °F 30.04 in North 10.0 mph 20.7 mph 73 % 0.00 in
01:25 52.7 °F 44.6 °F 30.04 in NNW 9.0 mph 17.3 mph 74 % 0.00 in
01:30 52.6 °F 44.2 °F 30.04 in North 11.3 mph 19.6 mph 73 % 0.00 in
01:35 52.5 °F 44.1 °F 30.05 in NNW 6.7 mph 15.0 mph 73 % 0.00 in
01:40 52.4 °F 44.0 °F 30.05 in NNW 11.2 mph 18.4 mph 73 % 0.00 in
01:45 52.3 °F 43.9 °F 30.05 in NE 9.5 mph 15.0 mph 73 % 0.00 in
01:50 52.3 °F 43.9 °F 30.05 in NE 7.7 mph 15.0 mph 73 % 0.00 in
01:55 52.2 °F 43.4 °F 30.05 in ENE 9.8 mph 17.3 mph 72 % 0.00 in
02:00 52.1 °F 43.3 °F 30.05 in NNW 11.5 mph 12.7 mph 72 % 0.00 in
02:05 52.1 °F 43.0 °F 30.05 in NE 11.0 mph 16.0 mph 71 % 0.00 in
02:11 52.0 °F 43.3 °F 30.05 in North 10.0 mph 17.0 mph 72 % 0.00 in
02:16 51.9 °F 42.4 °F 30.05 in NNE 8.0 mph 18.0 mph 70 % 0.00 in
02:21 51.9 °F 43.2 °F 30.06 in NNE 8.0 mph 16.0 mph 72 % 0.00 in
02:26 51.9 °F 42.8 °F 30.06 in North 8.0 mph 18.0 mph 71 % 0.00 in
02:31 51.8 °F 42.3 °F 30.06 in North 7.0 mph 18.0 mph 70 % 0.00 in
02:36 51.7 °F 42.2 °F 30.06 in North 7.0 mph 20.0 mph 70 % 0.00 in
02:41 51.6 °F 42.9 °F 30.06 in NNE 3.0 mph 13.0 mph 72 % 0.00 in
02:46 51.5 °F 42.4 °F 30.07 in North 6.0 mph 20.0 mph 71 % 0.00 in
02:51 51.5 °F 42.4 °F 30.07 in NNW 5.0 mph 18.0 mph 71 % 0.00 in
02:56 51.4 °F 42.3 °F 30.07 in North 8.0 mph 20.0 mph 71 % 0.00 in
03:01 51.3 °F 41.8 °F 30.07 in WSW 4.3 mph 10.4 mph 70 % 0.00 in
03:06 51.3 °F 42.6 °F 30.07 in NNW 3.0 mph 20.0 mph 72 % 0.00 in
03:11 51.2 °F 41.7 °F 30.07 in North 6.0 mph 13.0 mph 70 % 0.00 in
03:16 51.1 °F 42.0 °F 30.07 in North 6.0 mph 18.0 mph 71 % 0.00 in
03:20 51.0 °F 41.9 °F 30.07 in North 8.0 mph 17.0 mph 71 % 0.00 in
03:26 50.9 °F 41.8 °F 30.07 in NNE 8.0 mph 16.0 mph 71 % 0.00 in
03:31 50.8 °F 41.4 °F 30.07 in North 7.0 mph 17.0 mph 70 % 0.00 in
03:36 50.8 °F 42.1 °F 30.07 in North 6.0 mph 18.0 mph 72 % 0.00 in
03:40 50.9 °F 41.8 °F 30.07 in North 7.0 mph 17.0 mph 71 % 0.00 in
03:46 50.8 °F 41.4 °F 30.08 in North 8.0 mph 18.0 mph 70 % 0.00 in
03:50 50.8 °F 41.7 °F 30.08 in North 6.0 mph 15.0 mph 71 % 0.00 in
03:56 50.7 °F 41.7 °F 30.08 in NNE 12.0 mph 22.0 mph 71 % 0.00 in
04:01 50.6 °F 41.5 °F 30.08 in NNW 7.2 mph 11.5 mph 71 % 0.00 in
04:06 50.5 °F 41.8 °F 30.08 in NNE 8.3 mph 12.7 mph 72 % 0.00 in
04:11 50.5 °F 41.8 °F 30.08 in North 7.7 mph 11.5 mph 72 % 0.00 in
04:16 50.4 °F 42.1 °F 30.08 in NNE 11.4 mph 14.0 mph 73 % 0.00 in
04:21 50.4 °F 42.1 °F 30.08 in North 3.2 mph 8.1 mph 73 % 0.00 in
04:26 50.4 °F 42.4 °F 30.08 in NNW 4.7 mph 6.9 mph 74 % 0.00 in
04:31 50.4 °F 42.1 °F 30.08 in NNE 5.5 mph 15.0 mph 73 % 0.00 in
04:36 50.3 °F 42.0 °F 30.08 in North 5.3 mph 10.4 mph 73 % 0.00 in
04:41 50.2 °F 42.2 °F 30.08 in North 8.7 mph 13.8 mph 74 % 0.00 in
04:46 50.1 °F 42.1 °F 30.08 in NNW 7.7 mph 10.4 mph 74 % 0.00 in
04:52 50.0 °F 41.7 °F 30.09 in North 6.6 mph 16.1 mph 73 % 0.00 in
04:57 49.9 °F 41.6 °F 30.08 in North 8.1 mph 16.1 mph 73 % 0.00 in
05:02 50.0 °F 41.7 °F 30.08 in NNE 7.2 mph 18.4 mph 73 % 0.00 in
05:07 49.9 °F 42.3 °F 30.08 in NW 4.8 mph 9.2 mph 75 % 0.00 in
05:12 49.9 °F 41.9 °F 30.09 in North 6.6 mph 13.8 mph 74 % 0.00 in
05:17 49.8 °F 41.8 °F 30.09 in NNW 4.5 mph 16.1 mph 74 % 0.00 in
05:22 49.8 °F 41.5 °F 30.09 in NNE 6.4 mph 12.0 mph 73 % 0.00 in
05:27 49.8 °F 41.5 °F 30.09 in NNE 9.1 mph 15.0 mph 73 % 0.00 in
05:32 49.7 °F 41.4 °F 30.09 in NNE 7.3 mph 11.5 mph 73 % 0.00 in
05:37 49.8 °F 41.8 °F 30.09 in North 5.2 mph 10.4 mph 74 % 0.00 in
05:42 49.8 °F 41.8 °F 30.09 in NNW 5.7 mph 11.0 mph 74 % 0.00 in
05:47 49.8 °F 42.2 °F 30.09 in NNE 7.4 mph 14.0 mph 75 % 0.00 in
05:58 49.8 °F 41.8 °F 30.10 in ENE 8.4 mph 18.0 mph 74 % 0.00 in
06:03 49.8 °F 41.5 °F 30.10 in NNW 5.7 mph 13.8 mph 73 % 0.00 in
06:08 49.8 °F 42.2 °F 30.10 in North 7.9 mph 12.7 mph 75 % 0.00 in
06:13 49.8 °F 41.5 °F 30.10 in NNE 5.6 mph 11.5 mph 73 % 0.00 in
06:18 49.8 °F 41.5 °F 30.11 in NNW 8.0 mph 11.5 mph 73 % 0.00 in
06:23 49.8 °F 41.5 °F 30.11 in NNE 5.7 mph 11.5 mph 73 % 0.00 in
06:28 49.7 °F 41.7 °F 30.11 in NNE 7.1 mph 19.0 mph 74 % 0.00 in
06:33 49.8 °F 42.2 °F 30.12 in NNE 8.9 mph 11.5 mph 75 % 0.00 in
06:39 49.7 °F 41.4 °F 30.12 in ENE 4.3 mph 6.9 mph 73 % 0.00 in
06:44 49.7 °F 41.4 °F 30.12 in North 5.8 mph 12.7 mph 73 % 0.00 in
06:49 49.7 °F 41.4 °F 30.13 in North 6.8 mph 13.8 mph 73 % 0.00 in
06:54 49.6 °F 41.3 °F 30.13 in North 8.3 mph 18.4 mph 73 % 0.00 in
06:59 49.5 °F 40.8 °F 30.13 in NE 7.2 mph 15.0 mph 72 % 0.00 in
07:04 49.4 °F 40.7 °F 30.13 in North 9.2 mph 15.0 mph 72 % 0.00 in
07:09 49.4 °F 40.7 °F 30.13 in NNE 8.5 mph 18.4 mph 72 % 0.00 in
07:14 49.4 °F 40.7 °F 30.13 in NNE 5.3 mph 15.0 mph 72 % 0.00 in
07:19 49.4 °F 41.5 °F 30.13 in NNE 6.5 mph 13.8 mph 74 % 0.00 in
07:24 49.4 °F 41.1 °F 30.13 in WNW 8.2 mph 11.5 mph 73 % 0.00 in
07:30 49.4 °F 41.5 °F 30.13 in NW 5.7 mph 11.5 mph 74 % 0.00 in
07:35 49.5 °F 41.2 °F 30.14 in North 11.0 mph 20.7 mph 73 % 0.00 in
07:40 49.5 °F 41.6 °F 30.14 in NE 6.2 mph 16.1 mph 74 % 0.00 in
07:45 49.6 °F 41.3 °F 30.14 in NNW 10.5 mph 20.7 mph 73 % 0.00 in
07:50 49.6 °F 41.3 °F 30.14 in NNW 11.5 mph 17.0 mph 73 % 0.00 in
07:55 49.7 °F 41.7 °F 30.14 in NNW 10.1 mph 18.4 mph 74 % 0.00 in
08:00 49.7 °F 41.7 °F 30.15 in NNW 5.0 mph 11.5 mph 74 % 0.00 in
08:05 49.6 °F 40.2 °F 30.15 in North 10.4 mph 19.6 mph 70 % 0.00 in
08:10 49.6 °F 41.3 °F 30.15 in NNE 7.6 mph 12.7 mph 73 % 0.00 in
08:15 49.6 °F 40.9 °F 30.15 in North 9.1 mph 18.4 mph 72 % 0.00 in
08:20 49.6 °F 40.6 °F 30.16 in NNE 13.0 mph 20.0 mph 71 % 0.00 in
08:25 49.6 °F 40.2 °F 30.17 in NNE 10.7 mph 22.0 mph 70 % 0.00 in
08:30 49.7 °F 41.0 °F 30.17 in NNE 8.0 mph 15.0 mph 72 % 0.00 in
08:35 49.8 °F 40.8 °F 30.17 in North 10.0 mph 17.0 mph 71 % 0.00 in
08:40 49.8 °F 41.5 °F 30.17 in North 9.3 mph 12.7 mph 73 % 0.00 in
08:45 49.9 °F 41.2 °F 30.17 in North 9.0 mph 18.0 mph 72 % 0.00 in
08:50 49.9 °F 40.9 °F 30.17 in North 7.0 mph 18.0 mph 71 % 0.00 in
08:55 50.0 °F 40.6 °F 30.18 in North 8.7 mph 17.3 mph 70 % 0.00 in
09:01 50.0 °F 40.2 °F 30.18 in North 12.7 mph 26.5 mph 69 % 0.00 in
09:06 50.0 °F 40.2 °F 30.18 in NNE 7.7 mph 12.7 mph 69 % 0.00 in
09:11 50.1 °F 40.3 °F 30.18 in NNW 12.4 mph 18.4 mph 69 % 0.00 in
09:16 50.1 °F 40.7 °F 30.18 in NNE 8.3 mph 19.6 mph 70 % 0.00 in
09:21 50.3 °F 41.6 °F 30.18 in North 8.6 mph 15.0 mph 72 % 0.00 in
09:26 50.5 °F 41.1 °F 30.18 in NNW 7.0 mph 12.7 mph 70 % 0.00 in
09:31 50.6 °F 41.2 °F 30.18 in North 4.5 mph 12.7 mph 70 % 0.00 in
09:36 50.8 °F 41.0 °F 30.18 in North 9.8 mph 16.1 mph 69 % 0.00 in
09:42 50.8 °F 40.6 °F 30.18 in NNE 13.3 mph 16.1 mph 68 % 0.00 in
09:47 51.0 °F 40.8 °F 30.19 in NNE 9.0 mph 17.3 mph 68 % 0.00 in
09:52 51.1 °F 40.5 °F 30.18 in NE 12.5 mph 23.0 mph 67 % 0.00 in
09:57 51.3 °F 40.3 °F 30.19 in NNW 7.6 mph 19.6 mph 66 % 0.00 in
10:07 51.8 °F 40.8 °F 30.19 in NE 6.0 mph 13.8 mph 66 % 0.00 in
10:12 52.1 °F 40.7 °F 30.19 in North 7.8 mph 11.5 mph 65 % 0.00 in
10:17 52.4 °F 41.0 °F 30.19 in North 5.9 mph 11.5 mph 65 % 0.00 in
10:22 52.6 °F 40.8 °F 30.20 in North 6.5 mph 11.5 mph 64 % 0.00 in
10:27 52.8 °F 40.5 °F 30.20 in NNE 7.6 mph 15.0 mph 63 % 0.00 in
10:33 53.0 °F 40.3 °F 30.20 in North 10.0 mph 19.0 mph 62 % 0.00 in
10:38 53.3 °F 41.0 °F 30.19 in NNE 8.0 mph 15.0 mph 63 % 0.00 in
10:43 53.5 °F 41.2 °F 30.20 in NW 5.8 mph 12.7 mph 63 % 0.00 in
10:48 53.9 °F 41.2 °F 30.19 in North 7.3 mph 15.0 mph 62 % 0.00 in
10:53 54.1 °F 40.9 °F 30.19 in NNW 6.7 mph 11.5 mph 61 % 0.00 in
10:58 54.2 °F 41.0 °F 30.19 in North 6.2 mph 13.8 mph 61 % 0.00 in
11:03 54.6 °F 40.6 °F 30.19 in NNE 6.7 mph 13.0 mph 59 % 0.00 in
11:08 55.1 °F 41.5 °F 30.20 in NNW 7.2 mph 12.7 mph 60 % 0.00 in
11:13 55.7 °F 41.1 °F 30.20 in North 5.7 mph 15.0 mph 58 % 0.00 in
11:18 56.3 °F 40.8 °F 30.20 in NW 4.6 mph 9.2 mph 56 % 0.00 in
11:24 56.9 °F 41.8 °F 30.21 in NNW 5.2 mph 10.4 mph 57 % 0.00 in
11:29 57.6 °F 42.0 °F 30.21 in North 6.5 mph 12.7 mph 56 % 0.00 in
11:34 58.2 °F 42.1 °F 30.21 in NNW 8.0 mph 11.5 mph 55 % 0.00 in
11:39 58.6 °F 42.0 °F 30.21 in NNW 3.3 mph 9.0 mph 54 % 0.00 in
11:44 59.0 °F 40.9 °F 30.20 in NNE 7.2 mph 10.4 mph 51 % 0.00 in
11:54 59.8 °F 40.6 °F 30.20 in NNW 5.3 mph 13.8 mph 49 % 0.00 in
11:59 60.2 °F 42.5 °F 30.21 in NNE 5.7 mph 8.0 mph 52 % 0.00 in
12:04 60.5 °F 41.8 °F 30.21 in NE 3.6 mph 8.1 mph 50 % 0.00 in
12:09 60.8 °F 42.0 °F 30.20 in North 3.9 mph 10.4 mph 50 % 0.00 in
12:15 61.0 °F 42.2 °F 30.21 in NNE 4.3 mph 10.4 mph 50 % 0.00 in
12:25 61.2 °F 41.3 °F 30.21 in North 5.7 mph 9.2 mph 48 % 0.00 in
12:30 61.3 °F 40.9 °F 30.21 in WNW 5.1 mph 10.4 mph 47 % 0.00 in
12:35 61.3 °F 40.3 °F 30.20 in NE 6.8 mph 11.5 mph 46 % 0.00 in
12:40 61.3 °F 41.4 °F 30.20 in NW 6.2 mph 13.8 mph 48 % 0.00 in
12:45 61.2 °F 40.8 °F 30.20 in NNE 7.5 mph 8.1 mph 47 % 0.00 in
12:50 61.2 °F 40.8 °F 30.21 in NW 4.7 mph 10.4 mph 47 % 0.00 in
12:55 61.4 °F 41.5 °F 30.20 in East 3.7 mph 5.8 mph 48 % 0.00 in
13:00 61.7 °F 42.3 °F 30.20 in North 3.2 mph 10.4 mph 49 % 0.00 in
13:06 62.0 °F 42.6 °F 30.20 in North 6.0 mph 15.0 mph 49 % 0.00 in
13:11 62.2 °F 41.2 °F 30.20 in North 7.0 mph 8.1 mph 46 % 0.00 in
13:16 62.3 °F 41.8 °F 30.20 in North 5.0 mph 12.0 mph 47 % 0.00 in
13:21 62.4 °F 41.9 °F 30.20 in North 6.0 mph 12.0 mph 47 % 0.00 in
13:26 62.3 °F 41.8 °F 30.20 in NW 2.5 mph 5.8 mph 47 % 0.00 in
13:31 62.6 °F 42.1 °F 30.20 in North 6.0 mph 10.0 mph 47 % 0.00 in
13:36 62.7 °F 41.6 °F 30.20 in NNW 3.0 mph 10.0 mph 46 % 0.00 in
13:41 62.7 °F 42.2 °F 30.20 in NE 3.5 mph 5.8 mph 47 % 0.00 in
13:46 62.8 °F 41.7 °F 30.20 in North 6.0 mph 12.0 mph 46 % 0.00 in
13:51 62.8 °F 41.7 °F 30.20 in NNW 7.0 mph 13.0 mph 46 % 0.00 in
13:56 62.8 °F 40.5 °F 30.20 in NNE 3.1 mph 11.5 mph 44 % 0.00 in
14:01 62.9 °F 40.6 °F 30.20 in NW 3.6 mph 11.5 mph 44 % 0.00 in
14:06 62.9 °F 41.2 °F 30.20 in NNW 6.4 mph 11.5 mph 45 % 0.00 in
14:11 62.9 °F 40.0 °F 30.20 in North 3.4 mph 8.1 mph 43 % 0.00 in
14:16 63.0 °F 40.7 °F 30.20 in NNW 2.4 mph 6.9 mph 44 % 0.00 in
14:21 63.1 °F 42.5 °F 30.20 in NW 2.1 mph 4.6 mph 47 % 0.00 in
14:26 63.3 °F 42.2 °F 30.20 in NNW 4.0 mph 5.8 mph 46 % 0.00 in
14:31 63.4 °F 43.9 °F 30.20 in West 2.0 mph 9.2 mph 49 % 0.00 in
14:36 63.6 °F 41.9 °F 30.20 in NNW 7.0 mph 9.2 mph 45 % 0.00 in
14:41 63.5 °F 41.2 °F 30.20 in NNW 2.6 mph 9.0 mph 44 % 0.00 in
14:47 63.5 °F 40.6 °F 30.20 in NNW 5.2 mph 10.0 mph 43 % 0.00 in
14:52 63.3 °F 39.8 °F 30.20 in NNE 3.8 mph 6.9 mph 42 % 0.00 in
14:57 63.1 °F 40.8 °F 30.20 in North 4.0 mph 9.2 mph 44 % 0.00 in
15:02 62.9 °F 39.4 °F 30.20 in NNE 7.7 mph 11.5 mph 42 % 0.00 in
15:07 62.8 °F 41.1 °F 30.20 in NNE 3.5 mph 4.0 mph 45 % 0.00 in
15:12 62.6 °F 40.4 °F 30.20 in North 2.7 mph 8.1 mph 44 % 0.00 in
15:17 62.3 °F 40.1 °F 30.21 in NNE 5.6 mph 11.5 mph 44 % 0.00 in
15:22 61.6 °F 38.9 °F 30.21 in NE 5.4 mph 8.1 mph 43 % 0.00 in
15:27 61.2 °F 40.2 °F 30.20 in ENE 3.4 mph 6.9 mph 46 % 0.00 in
15:32 61.1 °F 39.6 °F 30.21 in NNW 2.8 mph 10.4 mph 45 % 0.00 in
15:38 60.9 °F 40.0 °F 30.21 in North 3.0 mph 4.6 mph 46 % 0.00 in
15:43 60.7 °F 39.8 °F 30.21 in NNE 2.2 mph 4.6 mph 46 % 0.00 in
15:48 60.7 °F 38.6 °F 30.21 in WNW 3.7 mph 7.0 mph 44 % 0.00 in
15:53 60.5 °F 38.5 °F 30.21 in North 6.1 mph 10.4 mph 44 % 0.00 in
15:58 60.2 °F 39.3 °F 30.21 in North 3.5 mph 10.0 mph 46 % 0.00 in
16:03 60.0 °F 39.1 °F 30.21 in NE 5.8 mph 12.0 mph 46 % 0.00 in
16:08 59.8 °F 39.0 °F 30.21 in NNW 5.1 mph 10.0 mph 46 % 0.00 in
16:13 59.8 °F 39.0 °F 30.21 in North 5.6 mph 9.2 mph 46 % 0.00 in
16:18 59.6 °F 38.8 °F 30.21 in North 6.0 mph 11.5 mph 46 % 0.00 in
16:23 59.5 °F 38.7 °F 30.21 in North 5.0 mph 9.2 mph 46 % 0.00 in
16:29 59.5 °F 38.1 °F 30.21 in NNW 2.7 mph 8.1 mph 45 % 0.00 in
16:34 59.4 °F 38.0 °F 30.22 in NNE 6.0 mph 11.5 mph 45 % 0.00 in
16:39 59.3 °F 38.5 °F 30.22 in North 4.0 mph 8.1 mph 46 % 0.00 in
16:44 59.2 °F 36.7 °F 30.22 in North 7.2 mph 11.5 mph 43 % 0.00 in
16:49 59.1 °F 38.3 °F 30.22 in NNW 4.5 mph 8.1 mph 46 % 0.00 in
16:54 59.0 °F 38.2 °F 30.22 in South 3.7 mph 9.2 mph 46 % 0.00 in
16:59 58.9 °F 38.1 °F 30.22 in NNW 4.9 mph 8.1 mph 46 % 0.00 in
17:04 58.8 °F 38.1 °F 30.22 in NNE 5.4 mph 8.1 mph 46 % 0.00 in
17:09 58.7 °F 38.0 °F 30.22 in North 7.3 mph 11.5 mph 46 % 0.00 in
17:14 58.7 °F 37.4 °F 30.22 in NNE 7.4 mph 9.2 mph 45 % 0.00 in
17:20 58.7 °F 36.8 °F 30.23 in NNW 4.5 mph 6.9 mph 44 % 0.00 in
17:25 58.6 °F 37.3 °F 30.23 in NNE 4.8 mph 9.2 mph 45 % 0.00 in
17:30 58.6 °F 38.4 °F 30.23 in NNE 4.6 mph 9.2 mph 47 % 0.00 in
17:35 58.4 °F 37.1 °F 30.23 in North 6.1 mph 11.5 mph 45 % 0.00 in
17:40 58.4 °F 38.2 °F 30.23 in NNE 2.9 mph 8.1 mph 47 % 0.00 in
17:45 58.3 °F 39.2 °F 30.24 in NNW 3.4 mph 8.0 mph 49 % 0.00 in
17:50 58.3 °F 39.7 °F 30.24 in NNE 5.1 mph 6.0 mph 50 % 0.00 in
17:55 58.2 °F 38.6 °F 30.24 in North 2.9 mph 5.0 mph 48 % 0.00 in
18:00 58.1 °F 38.0 °F 30.24 in North 5.3 mph 10.4 mph 47 % 0.00 in
18:05 57.9 °F 37.8 °F 30.25 in NNE 8.4 mph 12.7 mph 47 % 0.00 in
18:10 57.9 °F 38.8 °F 30.25 in North 2.3 mph 8.0 mph 49 % 0.00 in
18:15 57.8 °F 38.2 °F 30.25 in NNE 6.3 mph 10.0 mph 48 % 0.00 in
18:21 57.7 °F 39.2 °F 30.25 in NNE 6.0 mph 10.0 mph 50 % 0.00 in
18:26 57.6 °F 38.6 °F 30.26 in North 5.0 mph 8.0 mph 49 % 0.00 in
18:30 57.5 °F 38.5 °F 30.26 in North 4.2 mph 6.9 mph 49 % 0.00 in
18:36 57.4 °F 38.4 °F 30.25 in North 6.0 mph 12.0 mph 49 % 0.00 in
18:41 57.3 °F 38.3 °F 30.26 in North 6.0 mph 12.0 mph 49 % 0.00 in
18:45 57.2 °F 38.2 °F 30.26 in North 5.6 mph 11.5 mph 49 % 0.00 in
18:51 57.1 °F 38.1 °F 30.26 in North 8.0 mph 12.0 mph 49 % 0.00 in
18:56 57.1 °F 38.1 °F 30.26 in North 3.0 mph 12.0 mph 49 % 0.00 in
19:00 57.0 °F 39.0 °F 30.26 in North 5.7 mph 10.4 mph 51 % 0.00 in
19:06 56.9 °F 39.0 °F 30.26 in North 6.0 mph 10.0 mph 51 % 0.00 in
19:11 56.9 °F 38.9 °F 30.27 in North 6.0 mph 14.0 mph 51 % 0.00 in
19:16 56.9 °F 38.9 °F 30.27 in North 7.0 mph 12.0 mph 51 % 0.00 in
19:21 56.8 °F 38.9 °F 30.27 in NNE 6.0 mph 9.0 mph 51 % 0.00 in
19:26 56.7 °F 38.8 °F 30.27 in NNE 5.0 mph 12.0 mph 51 % 0.00 in
19:31 56.7 °F 38.8 °F 30.28 in NW 5.3 mph 8.1 mph 51 % 0.00 in
19:36 56.6 °F 38.7 °F 30.28 in NNE 8.0 mph 12.0 mph 51 % 0.00 in
19:41 56.6 °F 39.7 °F 30.28 in NNE 6.0 mph 12.0 mph 53 % 0.00 in
19:46 56.5 °F 38.6 °F 30.28 in NNE 6.2 mph 12.7 mph 51 % 0.00 in
19:51 56.5 °F 38.1 °F 30.28 in North 7.0 mph 13.0 mph 50 % 0.00 in
19:56 56.5 °F 38.6 °F 30.28 in North 6.0 mph 14.0 mph 51 % 0.00 in
20:01 56.5 °F 39.1 °F 30.28 in NE 6.0 mph 11.5 mph 52 % 0.00 in
20:06 56.4 °F 39.5 °F 30.29 in NNE 6.0 mph 12.0 mph 53 % 0.00 in
20:11 56.4 °F 40.0 °F 30.29 in NNE 6.0 mph 10.0 mph 54 % 0.00 in
20:16 56.3 °F 39.4 °F 30.29 in NNW 7.4 mph 11.5 mph 53 % 0.00 in
20:21 56.3 °F 39.4 °F 30.29 in North 8.0 mph 12.0 mph 53 % 0.00 in
20:26 56.3 °F 39.4 °F 30.29 in NNE 9.0 mph 14.0 mph 53 % 0.00 in
20:31 56.2 °F 39.8 °F 30.29 in NNE 7.7 mph 12.7 mph 54 % 0.00 in
20:36 56.2 °F 39.3 °F 30.29 in NNE 9.0 mph 15.0 mph 53 % 0.00 in
20:41 56.1 °F 40.1 °F 30.29 in NNE 6.0 mph 13.0 mph 55 % 0.00 in
20:46 56.1 °F 40.1 °F 30.30 in NNE 8.1 mph 15.0 mph 55 % 0.00 in
20:51 56.1 °F 40.1 °F 30.30 in NNE 7.0 mph 13.0 mph 55 % 0.00 in
20:56 56.0 °F 39.6 °F 30.30 in NNE 6.0 mph 12.0 mph 54 % 0.00 in
21:01 55.9 °F 38.5 °F 30.30 in North 7.7 mph 13.8 mph 52 % 0.00 in
21:06 55.9 °F 38.5 °F 30.30 in NNE 8.0 mph 14.0 mph 52 % 0.00 in
21:11 55.9 °F 39.0 °F 30.30 in NNE 8.0 mph 13.0 mph 53 % 0.00 in
21:16 55.9 °F 39.5 °F 30.30 in North 5.4 mph 10.4 mph 54 % 0.00 in
21:21 55.8 °F 38.9 °F 30.30 in North 6.0 mph 12.0 mph 53 % 0.00 in
21:26 55.7 °F 39.3 °F 30.30 in NNE 7.0 mph 13.0 mph 54 % 0.00 in
21:31 55.7 °F 39.3 °F 30.31 in NNW 3.3 mph 8.0 mph 54 % 0.00 in
21:36 55.6 °F 39.2 °F 30.32 in North 3.0 mph 10.0 mph 54 % 0.00 in
21:41 55.5 °F 40.0 °F 30.32 in NNE 6.0 mph 10.0 mph 56 % 0.00 in
21:46 55.3 °F 39.4 °F 30.32 in North 4.6 mph 8.1 mph 55 % 0.00 in
21:51 55.1 °F 38.7 °F 30.32 in NNE 7.0 mph 12.0 mph 54 % 0.00 in
21:56 55.0 °F 39.1 °F 30.32 in NNE 3.0 mph 10.0 mph 55 % 0.00 in
22:01 54.9 °F 39.0 °F 30.32 in North 5.5 mph 8.1 mph 55 % 0.00 in
22:06 54.8 °F 38.0 °F 30.33 in NNE 5.0 mph 12.0 mph 53 % 0.00 in
22:11 54.8 °F 38.5 °F 30.32 in NNE 6.0 mph 10.0 mph 54 % 0.00 in
22:16 54.7 °F 38.8 °F 30.33 in NNE 5.0 mph 9.0 mph 55 % 0.00 in
22:21 54.6 °F 38.7 °F 30.33 in NNE 5.0 mph 13.0 mph 55 % 0.00 in
22:26 54.5 °F 38.2 °F 30.33 in NNE 5.0 mph 9.0 mph 54 % 0.00 in
22:31 54.4 °F 38.1 °F 30.33 in NNE 7.0 mph 12.0 mph 54 % 0.00 in
22:36 54.3 °F 38.0 °F 30.33 in NNE 8.0 mph 13.0 mph 54 % 0.00 in
22:41 54.2 °F 38.4 °F 30.33 in NNE 3.0 mph 10.0 mph 55 % 0.00 in
22:46 54.1 °F 37.8 °F 30.34 in NNE 8.3 mph 10.4 mph 54 % 0.00 in
22:51 54.0 °F 38.2 °F 30.34 in NNE 6.0 mph 9.0 mph 55 % 0.00 in
22:56 53.9 °F 38.1 °F 30.34 in NNE 6.0 mph 10.0 mph 55 % 0.00 in
23:01 53.9 °F 37.6 °F 30.34 in North 6.0 mph 9.2 mph 54 % 0.00 in
23:06 53.8 °F 38.4 °F 30.34 in NNE 6.0 mph 10.0 mph 56 % 0.00 in
23:11 53.7 °F 37.9 °F 30.34 in NNE 5.0 mph 8.0 mph 55 % 0.00 in
23:16 53.6 °F 38.3 °F 30.35 in NNE 6.0 mph 9.0 mph 56 % 0.00 in
23:21 53.4 °F 38.1 °F 30.35 in NNE 5.0 mph 10.0 mph 56 % 0.00 in
23:26 53.4 °F 38.5 °F 30.35 in NNE 3.0 mph 9.0 mph 57 % 0.00 in
23:31 53.3 °F 38.4 °F 30.34 in North 4.1 mph 5.8 mph 57 % 0.00 in
23:36 53.3 °F 38.9 °F 30.35 in NNE 6.0 mph 10.0 mph 58 % 0.00 in
23:41 53.2 °F 39.2 °F 30.35 in NNE 2.0 mph 7.0 mph 59 % 0.00 in
23:46 53.1 °F 39.1 °F 30.35 in North 3.7 mph 9.2 mph 59 % 0.00 in
23:51 53.1 °F 38.2 °F 30.35 in North 3.0 mph 9.0 mph 57 % 0.00 in
23:56 53.0 °F 38.6 °F 30.35 in North 2.0 mph 7.0 mph 58 % 0.00 in
Crab Meadow Weather
Compliments of Weather Underground - 3 mb

Script developed by  Jim McMurry - jmcmurry@mwt.net Adapted for the template by  Wim van der Kuil - Leuven-Template.eu

Astronomy: Pluto is not a planet, because it does not have a fixed orbit and it's orbit comes in between the orbit of another planet (Neptune).